My Meet Scores
Kelly Jameson, American Gymnastics Training Center - MyMeetScores.com
Top100 | Top Teams | Upcoming Meets | Completed Meets | Latest | Add Scores | Help| Support | Bookmark and Share

Kelly Jameson, American Gymnastics Training Center
Personal Bests
LevelVault BarsBeamFloorAA
XB9.2759.650 9.6009.30037.400
XG9.2509.250 8.7009.15035.600
XS9.6009.525 9.4259.32537.150
Meet Scores
Date Meet Team Session Level Division Vault Bars Beam Floor AA
2020-02-21 Pink Invitational ~ Gymnasts Unite American Gymnastics Training Center UC3 XG 12 yrs. 9.000 6T 9.150 1T 8.700 7 8.750 17 35.600 7
2020-02-08 Mardi Gras Invitational American Gymnastics Training Center B09 XG Division 2 8.550 8T 9.250 10T 8.650 14 9.000 13T 35.450 12
2020-01-24 American Invitational 2020 American Gymnastics Training Center 4 XG Youth 9.250 2 8.800 2 8.350 4 9.150 4 35.550 2
2020-01-10 Little Boston Invitational American Gymnastics Training Center A05 XG JR 8.700 8 8.950 11 8.475 9 8.700 7T 34.825 9
2019-05-04 2019 CT XCEL Silver State Championship American Gymnastics Training Center 2 XS Jr H 9.275 2T 9.525 2 9.275 2T 9.075 4 37.150 2
2019-04-06 Shoreline Twister Invitational American Gymnastics Training Center 2 XS Middle 9.000 7T 9.500 1 9.400 1T 9.200 6T 37.100 1
2019-02-16 Chelsea Piers Winter Challenge American Gymnastics Training Center F2 XS Middle 9.600 3T 9.400 3T 9.200 11T 8.900 10T 37.100 4T
2019-01-25 Kinetic Kids Invitational 2019 American Gymnastics Training Center 3 XS Jr D 8.800 5 8.700 9T 9.075 5 9.000 4T 35.575 7
2019-01-18 22nd Annual Star Struck Invitational American Gymnastics Training Center 6D XS Sr A 8.850 5 9.250 3T 9.100 4 9.050 4T 36.250 4
2018-12-08 American Gymnastics Invitational American Gymnastics Training Center 6 XS Child 9.000 1 9.325 3 9.000 6T 9.225 2 36.550 1
2018-11-17 2018 Connecticut Judge's Cup American Gymnastics Training Center 4 XS 11 yrs. 8.950 18 9.125 21 9.025 22T 8.900 11T 36.000 17
2018-11-02 Muriel Grossfeld Invitational American Gymnastics Training Center 5 XS Sr A 9.300 3T 9.400 1 9.100 4T 8.900 7 36.700 2
2018-05-05 2018 CT XCEL Silver State Championships American Gymnastics Training Center 2 XS Jr C 8.950 3T 9.175 3T 8.975 10 9.325 6 36.425 5
2018-02-16 Chelsea Piers Winter Challenge American Gymnastics Training Center F-2 XS JR A 9.375 6 9.500 5 8.750 12 9.250 7T 36.875 8
2018-02-09 Team Challenge 2018 American Gymnastics Training Center 04B XS Jr B 8.900 8T 9.525 1 8.850 10T 8.950 8T 36.225 7T
2018-01-26 2018 American Invitational American Gymnastics Training Center 3B XS Middle 8.700 11 9.450 3 9.425 4T 9.000 8T 36.575 6
2018-01-19 Beauty And The Beast Invitational American Gymnastics Training Center 14 XS C 9.000 5T 9.100 12 8.900 6 9.325 5 36.325 4
2017-05-13 2017 Xcel Bronze Connecticut State Cup American Gymnastics Training Center 1 XB All Ages 9.275 15T 9.600 2T 9.200 10T 9.200 13T 37.275 7T
2017-03-02 2017 Holiday Costume Cup American Gymnastics Training Center 2 XB Middle 9.200 6T 9.550 2 9.350 5 9.300 3 37.400 4
2017-02-10 Team Challenge 2017 American Gymnastics Training Center 04B XB Junior 8.850 4T 9.650 1 9.600 4 8.800 8T 36.900 2
2017-01-27 24th Annual American Invitational American Gymnastics Training Center 1A XB Junior 8.750 13 9.300 3T 9.100 5T 9.300 3T 36.450 4
2017-01-13 20th Annual Star Struck Invitational American Gymnastics Training Center 1D XB Srs. 8.900 9T 9.400 4 9.050 5 9.050 9T 36.400 6
2016-05-15 2016 Connecticut XB State Cup American Gymnastics Training Center 2 XB All Ages 8.650 38T 9.300 14 9.275 31T 8.675 48 35.900 27
2016-02-13 Chelsea Piers Winter Challenge American Gymnastics Training Center CT5 XB CH 8.850 2 9.450 2 8.700 14 8.550 10 35.550 5
2016-02-05 Lets Make A Deal American Gymnastics Training Center 7 XB Nickle 8.900 41T 9.100 25T 8.900 37T 8.350 48 35.250 43
2016-01-28 2016 American Invitational American Gymnastics Training Center 1A XB Child 8.450 5 9.525 1 8.500 9 8.775 3 35.250 3
Get your scores on
a t-shirt, pin, or hoodie

www.lazysuits.com